createdAt,value
2023-04-13T00:01:11.709Z,50.10
2023-04-13T00:03:42.047Z,47.80
2023-04-13T00:06:11.679Z,52.77
2023-04-13T00:08:43.060Z,54.13
2023-04-13T00:11:11.638Z,50.73
2023-04-13T00:13:43.267Z,54.40
2023-04-13T00:16:12.733Z,51.93
2023-04-13T00:18:42.801Z,53.60
2023-04-13T00:21:11.788Z,50.87
2023-04-13T00:23:40.868Z,55.60
2023-04-13T00:26:09.390Z,52.73
2023-04-13T00:28:38.118Z,51.37
2023-04-13T00:31:07.433Z,51.13
2023-04-13T00:33:35.964Z,54.43
2023-04-13T00:36:06.631Z,57.23
2023-04-13T00:38:35.759Z,60.87
2023-04-13T00:41:04.439Z,56.43
2023-04-13T00:43:33.012Z,56.57
2023-04-13T00:46:02.551Z,57.47
2023-04-13T00:48:31.712Z,58.53
2023-04-13T00:51:00.320Z,50.57
2023-04-13T00:53:30.330Z,56.07
2023-04-13T00:55:59.637Z,55.37
2023-04-13T00:58:28.488Z,52.27
2023-04-13T01:00:56.989Z,52.53
2023-04-13T01:03:26.152Z,50.90
2023-04-13T01:06:02.363Z,52.53
2023-04-13T01:08:39.221Z,47.60
2023-04-13T01:11:14.591Z,50.20
2023-04-13T01:13:48.144Z,58.03
2023-04-13T01:16:21.840Z,54.77
2023-04-13T01:18:54.543Z,53.77
2023-04-13T01:21:27.901Z,51.47
2023-04-13T01:24:10.568Z,56.33
2023-04-13T01:26:51.341Z,48.23
2023-04-13T01:29:21.568Z,52.80
2023-04-13T01:31:50.867Z,50.00
2023-04-13T01:34:19.649Z,48.17
2023-04-13T01:36:48.310Z,56.90
2023-04-13T01:39:20.694Z,52.60
2023-04-13T01:41:49.375Z,56.40
2023-04-13T01:44:18.165Z,56.37
2023-04-13T01:46:54.468Z,53.93
2023-04-13T01:49:24.492Z,51.30
2023-04-13T01:51:55.635Z,55.40
2023-04-13T01:54:27.496Z,53.20
2023-04-13T01:57:00.420Z,47.77
2023-04-13T01:59:29.033Z,53.47
2023-04-13T02:01:59.630Z,56.97
2023-04-13T02:04:40.638Z,50.73
2023-04-13T02:07:09.162Z,60.83
2023-04-13T02:09:37.816Z,58.37
2023-04-13T02:12:06.839Z,54.93
2023-04-13T02:14:35.625Z,58.43
2023-04-13T02:17:09.152Z,60.13
2023-04-13T02:19:38.719Z,53.80
2023-04-13T02:22:08.192Z,53.50
2023-04-13T02:24:37.935Z,57.03
2023-04-13T02:27:07.485Z,55.13
2023-04-13T02:29:39.449Z,59.53
2023-04-13T02:32:11.624Z,53.20
2023-04-13T02:34:44.739Z,52.77
2023-04-13T02:37:13.726Z,53.97
2023-04-13T02:39:42.930Z,52.90
2023-04-13T02:42:12.282Z,51.40
2023-04-13T02:44:41.965Z,48.93
2023-04-13T02:47:13.012Z,46.83
2023-04-13T02:49:43.478Z,31.50
2023-04-13T02:52:13.224Z,49.27
2023-04-13T02:54:43.648Z,40.33
2023-04-13T02:57:13.862Z,48.17
2023-04-13T02:59:42.958Z,45.77
2023-04-13T03:02:17.688Z,49.40
2023-04-13T03:04:46.467Z,46.73
2023-04-13T03:07:17.437Z,44.50
2023-04-13T03:09:48.165Z,49.53
2023-04-13T03:12:17.625Z,52.17
2023-04-13T03:14:46.358Z,50.10
2023-04-13T03:17:18.523Z,60.13
2023-04-13T03:19:52.576Z,48.53
2023-04-13T03:22:22.076Z,47.87
2023-04-13T03:24:52.067Z,44.93
2023-04-13T03:27:23.425Z,52.23
2023-04-13T03:29:52.588Z,48.60
2023-04-13T03:32:23.347Z,47.97
2023-04-13T03:34:52.035Z,40.13
2023-04-13T03:37:21.988Z,41.80
2023-04-13T03:39:50.929Z,44.97
2023-04-13T03:42:19.515Z,46.20
2023-04-13T03:44:51.108Z,43.40
2023-04-13T03:47:19.880Z,47.20
2023-04-13T03:49:50.001Z,42.83
2023-04-13T03:52:22.161Z,43.03
2023-04-13T03:54:50.934Z,41.07
2023-04-13T03:57:19.575Z,43.50
2023-04-13T03:59:48.164Z,45.17
2023-04-13T04:02:17.114Z,44.27
2023-04-13T04:04:46.341Z,41.47
2023-04-13T04:07:16.619Z,42.77
2023-04-13T04:09:45.163Z,42.80
2023-04-13T04:12:14.745Z,42.13
2023-04-13T04:14:43.436Z,42.07
2023-04-13T04:17:12.049Z,38.83
2023-04-13T04:19:40.567Z,39.30
2023-04-13T04:22:09.178Z,38.03
2023-04-13T04:24:39.282Z,38.97
2023-04-13T04:27:08.021Z,37.67
2023-04-13T04:29:36.768Z,35.20
2023-04-13T04:32:06.640Z,36.23
2023-04-13T04:34:36.003Z,33.13
2023-04-13T04:37:19.616Z,36.60
2023-04-13T04:39:50.705Z,37.93
2023-04-13T04:42:20.066Z,34.67
2023-04-13T04:44:50.342Z,40.17
2023-04-13T04:47:19.909Z,38.67
2023-04-13T04:49:48.532Z,37.33
2023-04-13T04:52:17.150Z,36.00
2023-04-13T04:54:45.725Z,33.33
2023-04-13T04:57:17.370Z,31.93
2023-04-13T04:59:46.466Z,34.10
2023-04-13T05:02:15.105Z,33.20
2023-04-13T05:04:43.786Z,30.57
2023-04-13T05:07:17.066Z,32.17
2023-04-13T05:09:45.863Z,33.20
2023-04-13T05:12:16.062Z,33.20
2023-04-13T05:14:48.358Z,35.10
2023-04-13T05:17:18.451Z,33.57
2023-04-13T05:19:48.986Z,26.90
2023-04-13T05:22:17.784Z,67.83
2023-04-13T05:24:46.421Z,47.90
2023-04-13T05:27:16.733Z,32.10
2023-04-13T05:29:49.227Z,48.37
2023-04-13T05:32:17.902Z,39.13
2023-04-13T05:34:51.454Z,32.53
2023-04-13T05:37:20.721Z,29.30
2023-04-13T05:39:49.480Z,29.73
2023-04-13T05:42:20.292Z,28.93
2023-04-13T05:44:49.305Z,29.90
2023-04-13T05:47:18.253Z,28.77
2023-04-13T05:49:47.087Z,27.55
2023-04-13T05:52:15.906Z,44.10
2023-04-13T05:54:44.498Z,33.00
2023-04-13T05:57:13.195Z,30.60
2023-04-13T05:59:43.178Z,29.43
2023-04-13T06:02:11.830Z,34.00
2023-04-13T06:04:40.640Z,28.77
2023-04-13T06:07:09.487Z,28.10
2023-04-13T06:09:38.644Z,26.80
2023-04-13T06:12:08.410Z,25.67
2023-04-13T06:14:37.212Z,28.20
2023-04-13T06:17:07.502Z,27.00
2023-04-13T06:19:36.093Z,27.23
2023-04-13T06:22:04.802Z,28.30
2023-04-13T06:24:33.466Z,28.47
2023-04-13T06:27:02.408Z,30.40
2023-04-13T06:29:31.050Z,28.43
2023-04-13T06:31:59.801Z,31.17
2023-04-13T06:34:29.978Z,29.87
2023-04-13T06:36:59.643Z,27.93
2023-04-13T06:39:29.060Z,27.80
2023-04-13T06:41:59.058Z,30.08
2023-04-13T06:44:27.737Z,31.77
2023-04-13T06:46:57.784Z,26.07
2023-04-13T06:49:26.606Z,23.83
2023-04-13T06:51:57.159Z,22.83
2023-04-13T06:54:26.008Z,22.63
2023-04-13T06:56:54.611Z,20.53
2023-04-13T06:59:23.286Z,22.43
2023-04-13T07:01:51.921Z,21.63
2023-04-13T07:04:21.301Z,20.83
2023-04-13T07:06:50.034Z,23.37
2023-04-13T07:09:20.102Z,22.50
2023-04-13T07:11:48.637Z,25.77
2023-04-13T07:14:17.284Z,20.93
2023-04-13T07:16:46.130Z,20.53
2023-04-13T07:19:17.790Z,21.77
2023-04-13T07:21:46.510Z,19.63
2023-04-13T07:24:15.508Z,21.03
2023-04-13T07:26:45.722Z,20.63
2023-04-13T07:29:16.995Z,16.97
2023-04-13T07:31:45.836Z,19.80
2023-04-13T07:34:14.423Z,18.47
2023-04-13T07:36:43.464Z,18.90
2023-04-13T07:39:12.324Z,23.47
2023-04-13T07:41:41.000Z,23.13
2023-04-13T07:44:11.104Z,20.00
2023-04-13T07:46:40.031Z,21.30
2023-04-13T07:49:08.592Z,18.97
2023-04-13T07:51:37.490Z,19.27
2023-04-13T07:54:06.138Z,18.77
2023-04-13T07:56:36.429Z,17.10
2023-04-13T07:59:05.179Z,16.37
2023-04-13T08:01:35.139Z,17.83
2023-04-13T08:04:03.894Z,17.17
2023-04-13T08:06:33.562Z,17.40
2023-04-13T08:09:02.105Z,18.40
2023-04-13T08:11:31.278Z,17.23
2023-04-13T08:14:00.159Z,17.40
2023-04-13T08:16:33.621Z,17.57
2023-04-13T08:19:04.044Z,16.93
2023-04-13T08:21:41.561Z,23.63
2023-04-13T08:24:10.985Z,25.30
2023-04-13T08:26:39.624Z,22.70
2023-04-13T08:29:09.234Z,19.63
2023-04-13T08:31:37.781Z,18.67
2023-04-13T08:34:10.903Z,16.77
2023-04-13T08:36:39.581Z,18.67
2023-04-13T08:39:10.537Z,20.43
2023-04-13T08:41:41.678Z,24.87
2023-04-13T08:44:10.970Z,31.00
2023-04-13T08:46:39.816Z,27.63
2023-04-13T08:49:10.399Z,21.63
2023-04-13T08:51:39.450Z,18.33
2023-04-13T08:54:08.987Z,15.98
2023-04-13T08:56:45.908Z,16.30
2023-04-13T08:59:17.323Z,16.67
2023-04-13T09:01:49.015Z,17.47
2023-04-13T09:04:24.217Z,17.97
2023-04-13T09:06:53.887Z,19.30
2023-04-13T09:09:22.901Z,17.23
2023-04-13T09:11:52.355Z,21.20
2023-04-13T09:14:22.391Z,17.77
2023-04-13T09:16:51.549Z,22.43
2023-04-13T09:19:30.629Z,17.47
2023-04-13T09:21:59.479Z,17.45
2023-04-13T09:24:28.717Z,16.10
2023-04-13T09:26:58.860Z,18.42
2023-04-13T09:29:27.495Z,19.52
2023-04-13T09:31:56.165Z,19.92
2023-04-13T09:34:30.916Z,15.95
2023-04-13T09:37:01.181Z,21.97
2023-04-13T09:39:31.072Z,18.93
2023-04-13T09:42:10.718Z,19.63
2023-04-13T09:44:40.064Z,19.48
2023-04-13T09:47:08.871Z,20.40
2023-04-13T09:49:43.083Z,25.20
2023-04-13T09:52:21.114Z,20.38
2023-04-13T09:54:53.118Z,39.35
2023-04-13T09:57:25.927Z,23.92
2023-04-13T09:59:55.930Z,28.67
2023-04-13T10:02:25.022Z,26.85
2023-04-13T10:04:55.651Z,37.10
2023-04-13T10:07:29.067Z,26.90
2023-04-13T10:09:57.767Z,27.45
2023-04-13T10:12:30.209Z,30.63
2023-04-13T10:15:06.090Z,30.48
2023-04-13T10:17:49.573Z,29.92
2023-04-13T10:20:19.948Z,33.83
2023-04-13T10:22:49.165Z,36.17
2023-04-13T10:25:32.307Z,43.65
2023-04-13T10:28:02.632Z,44.63
2023-04-13T10:30:31.554Z,61.67
2023-04-13T10:33:05.970Z,43.50
2023-04-13T10:35:39.434Z,32.20
2023-04-13T10:38:11.041Z,50.35
2023-04-13T10:40:46.610Z,71.72
2023-04-13T10:43:25.759Z,105.40
2023-04-13T10:46:07.241Z,113.10
2023-04-13T10:48:36.634Z,100.43
2023-04-13T10:51:06.872Z,29.88
2023-04-13T10:53:35.821Z,30.13
2023-04-13T10:56:05.441Z,28.70
2023-04-13T10:58:34.675Z,51.83
2023-04-13T11:01:03.544Z,28.95
2023-04-13T11:03:33.101Z,27.92
2023-04-13T11:06:03.029Z,25.15
2023-04-13T11:08:35.342Z,26.80
2023-04-13T11:11:04.074Z,23.45
2023-04-13T11:13:36.835Z,25.45
2023-04-13T11:16:06.808Z,27.30
2023-04-13T11:18:35.431Z,28.30
2023-04-13T11:21:07.926Z,24.13
2023-04-13T11:23:38.924Z,23.70
2023-04-13T11:26:07.811Z,24.00
2023-04-13T11:28:41.522Z,30.15
2023-04-13T11:31:11.810Z,27.45
2023-04-13T11:33:41.312Z,27.58
2023-04-13T11:36:12.142Z,25.27
2023-04-13T11:38:43.920Z,23.30
2023-04-13T11:41:16.962Z,30.75
2023-04-13T11:43:48.601Z,26.13
2023-04-13T11:46:25.714Z,24.92
2023-04-13T11:48:54.966Z,24.45
2023-04-13T11:51:26.703Z,24.17
2023-04-13T11:53:57.069Z,25.27
2023-04-13T11:56:26.117Z,23.17
2023-04-13T11:58:55.186Z,34.38
2023-04-13T12:01:27.171Z,32.10
2023-04-13T12:04:14.524Z,23.30
2023-04-13T12:06:48.801Z,25.80
2023-04-13T12:09:20.970Z,26.95
2023-04-13T12:12:15.965Z,28.15
2023-04-13T12:19:47.137Z,37.28
2023-04-13T12:22:17.923Z,35.00
2023-04-13T12:24:48.374Z,37.78
2023-04-13T12:27:19.366Z,35.38
2023-04-13T12:29:49.245Z,29.77
2023-04-13T12:32:18.695Z,25.33
2023-04-13T12:34:47.602Z,21.52
2023-04-13T12:37:16.158Z,22.50
2023-04-13T12:39:44.977Z,20.27
2023-04-13T12:42:15.143Z,20.65
2023-04-13T12:44:43.942Z,99.63
2023-04-13T12:47:12.914Z,49.13
2023-04-13T12:49:41.660Z,36.17
2023-04-13T12:52:10.374Z,43.88
2023-04-13T12:54:39.092Z,33.60
2023-04-13T12:57:07.933Z,28.23
2023-04-13T12:59:38.081Z,23.58
2023-04-13T13:02:06.900Z,25.27
2023-04-13T13:04:35.856Z,35.03
2023-04-13T13:07:04.723Z,44.83
2023-04-13T13:09:33.393Z,36.33
2023-04-13T13:12:02.858Z,32.83
2023-04-13T13:14:32.630Z,36.92
2023-04-13T13:17:03.986Z,31.80
2023-04-13T13:19:32.762Z,41.60
2023-04-13T13:22:01.564Z,45.13
2023-04-13T13:24:30.614Z,43.28
2023-04-13T13:29:33.485Z,89.95
2023-04-13T13:32:03.742Z,106.10
2023-04-13T13:34:32.449Z,187.63
2023-04-13T13:37:01.096Z,64.97
2023-04-13T13:39:29.801Z,83.10
2023-04-13T13:41:58.871Z,95.85
2023-04-13T13:44:27.494Z,88.35
2023-04-13T13:46:56.240Z,79.28
2023-04-13T13:49:26.831Z,77.30
2023-04-13T13:51:55.853Z,55.63
2023-04-13T13:54:24.841Z,37.50
2023-04-13T13:56:53.648Z,37.80
2023-04-13T13:59:22.206Z,45.40
2023-04-13T14:01:50.834Z,93.20
2023-04-13T14:04:19.448Z,56.60
2023-04-13T14:06:49.954Z,41.47
2023-04-13T14:09:19.130Z,36.95
2023-04-13T14:11:47.834Z,36.50
2023-04-13T14:14:21.626Z,33.08
2023-04-13T14:16:54.492Z,29.35
2023-04-13T14:19:26.121Z,30.60
2023-04-13T14:21:57.321Z,30.85
2023-04-13T14:24:26.523Z,31.88
2023-04-13T14:26:55.203Z,33.03
2023-04-13T14:29:24.034Z,33.30
2023-04-13T14:31:52.711Z,32.88
2023-04-13T14:34:21.304Z,33.38
2023-04-13T14:36:52.886Z,37.42
2023-04-13T14:39:26.156Z,32.20
2023-04-13T14:41:56.499Z,34.72
2023-04-13T14:44:25.708Z,29.80
2023-04-13T14:46:54.732Z,29.45
2023-04-13T14:49:23.201Z,33.08
2023-04-13T14:51:52.496Z,34.55
2023-04-13T14:54:21.365Z,29.13
2023-04-13T14:56:51.285Z,26.75
2023-04-13T14:59:19.764Z,29.40
2023-04-13T15:01:48.749Z,26.80
2023-04-13T15:04:19.175Z,25.52
2023-04-13T15:06:49.561Z,26.80
2023-04-13T15:09:18.504Z,26.02
2023-04-13T15:11:47.251Z,24.73
2023-04-13T15:14:17.309Z,27.38
2023-04-13T15:16:46.106Z,26.80
2023-04-13T15:19:14.766Z,28.73
2023-04-13T15:21:43.419Z,48.00
2023-04-13T15:24:12.273Z,53.40
2023-04-13T15:26:42.247Z,54.55
2023-04-13T15:29:11.117Z,59.28
2023-04-13T15:31:41.138Z,66.28
2023-04-13T15:34:09.760Z,60.15
2023-04-13T15:36:38.619Z,69.47
2023-04-13T15:39:07.389Z,59.13
2023-04-13T15:41:36.127Z,62.28
2023-04-13T15:44:04.704Z,50.17
2023-04-13T15:46:34.578Z,62.67
2023-04-13T15:49:04.611Z,47.90
2023-04-13T15:51:33.511Z,55.67
2023-04-13T15:54:02.162Z,46.70
2023-04-13T15:56:30.976Z,43.85
2023-04-13T15:58:59.723Z,80.70
2023-04-13T16:01:28.844Z,53.42
2023-04-13T16:03:57.932Z,32.28
2023-04-13T16:06:28.283Z,31.85
2023-04-13T16:08:57.127Z,41.75
2023-04-13T16:11:29.932Z,40.97
2023-04-13T16:14:07.423Z,45.40
2023-04-13T16:16:45.356Z,33.95
2023-04-13T16:19:19.470Z,26.13
2023-04-13T16:21:51.451Z,24.80
2023-04-13T16:24:21.371Z,21.52
2023-04-13T16:26:50.341Z,23.42
2023-04-13T16:29:19.274Z,21.65
2023-04-13T16:31:48.402Z,34.55
2023-04-13T16:34:24.849Z,25.48
2023-04-13T16:36:56.885Z,48.05
2023-04-13T16:39:25.639Z,24.70
2023-04-13T16:41:54.347Z,22.25
2023-04-13T16:44:22.909Z,27.98
2023-04-13T16:46:51.497Z,29.08
2023-04-13T16:49:20.277Z,33.27
2023-04-13T16:51:49.671Z,28.83
2023-04-13T16:54:21.159Z,28.67
2023-04-13T16:56:49.787Z,33.00
2023-04-13T16:59:18.326Z,38.73
2023-04-13T17:01:47.361Z,34.27
2023-04-13T17:04:16.097Z,41.30
2023-04-13T17:06:47.442Z,36.37
2023-04-13T17:09:16.062Z,22.80
2023-04-13T17:11:46.144Z,22.27
2023-04-13T17:14:14.821Z,22.60
2023-04-13T17:16:43.615Z,20.03
2023-04-13T17:19:12.269Z,18.37
2023-04-13T17:21:41.483Z,17.37
2023-04-13T17:24:10.527Z,33.97
2023-04-13T17:26:39.122Z,92.53
2023-04-13T17:29:09.509Z,84.67
2023-04-13T17:31:38.052Z,90.70
2023-04-13T17:34:06.815Z,77.40
2023-04-13T17:36:35.362Z,20.63
2023-04-13T17:39:05.901Z,23.33
2023-04-13T17:41:34.961Z,56.57
2023-04-13T17:44:03.659Z,109.43
2023-04-13T17:46:33.681Z,87.47
2023-04-13T17:49:02.518Z,184.50
2023-04-13T17:51:34.542Z,217.83
2023-04-13T17:54:07.857Z,246.43
2023-04-13T17:56:36.644Z,200.13
2023-04-13T17:59:05.455Z,169.87
2023-04-13T18:01:35.925Z,200.53
2023-04-13T18:04:04.672Z,155.77
2023-04-13T18:06:33.229Z,284.13
2023-04-13T18:09:01.876Z,340.47
2023-04-13T18:11:30.516Z,290.17
2023-04-13T18:13:59.292Z,60.63
2023-04-13T18:16:28.418Z,48.07
2023-04-13T18:18:58.542Z,94.13
2023-04-13T18:21:27.919Z,127.70
2023-04-13T18:23:57.077Z,118.57
2023-04-13T18:26:26.518Z,121.83
2023-04-13T18:28:57.973Z,94.03
2023-04-13T18:31:28.262Z,72.80
2023-04-13T18:33:58.605Z,48.93
2023-04-13T18:36:27.924Z,44.63
2023-04-13T18:38:56.560Z,70.55
2023-04-13T18:41:25.261Z,85.10
2023-04-13T18:43:53.875Z,70.33
2023-04-13T18:46:22.617Z,57.20
2023-04-13T18:48:51.136Z,42.72
2023-04-13T18:51:21.522Z,54.00
2023-04-13T18:53:50.301Z,46.67
2023-04-13T18:56:18.982Z,42.70
2023-04-13T18:58:47.698Z,40.53
2023-04-13T19:01:17.776Z,33.47
2023-04-13T19:03:46.862Z,34.00
2023-04-13T19:06:15.700Z,40.20
2023-04-13T19:08:45.781Z,40.87
2023-04-13T19:11:16.290Z,34.77
2023-04-13T19:13:48.264Z,31.27
2023-04-13T19:16:17.053Z,25.00
2023-04-13T19:18:45.712Z,24.90
2023-04-13T19:21:14.386Z,24.00
2023-04-13T19:23:44.503Z,23.40
2023-04-13T19:26:13.279Z,24.90
2023-04-13T19:28:42.203Z,32.03
2023-04-13T19:31:12.029Z,22.53
2023-04-13T19:33:40.655Z,19.20
2023-04-13T19:36:09.156Z,25.83
2023-04-13T19:38:37.655Z,30.10
2023-04-13T19:41:08.339Z,31.83
2023-04-13T19:43:37.117Z,26.10
2023-04-13T19:46:05.842Z,25.30
2023-04-13T19:48:34.851Z,27.73
2023-04-13T19:51:03.954Z,29.97
2023-04-13T19:53:32.868Z,35.37
2023-04-13T19:56:01.648Z,33.97
2023-04-13T19:58:32.361Z,29.97
2023-04-13T20:01:02.294Z,18.53
2023-04-13T20:03:31.524Z,19.23
2023-04-13T20:06:00.445Z,19.30
2023-04-13T20:08:29.043Z,22.50
2023-04-13T20:10:58.628Z,17.83
2023-04-13T20:13:28.460Z,22.83
2023-04-13T20:15:58.819Z,24.50
2023-04-13T20:18:27.517Z,22.40
2023-04-13T20:20:56.321Z,21.47
2023-04-13T20:23:24.798Z,22.67
2023-04-13T20:25:53.533Z,19.80
2023-04-13T20:28:22.005Z,21.87
2023-04-13T20:30:50.572Z,20.43
2023-04-13T20:33:20.723Z,19.43
2023-04-13T20:35:50.114Z,18.53
2023-04-13T20:38:18.633Z,17.70
2023-04-13T20:40:48.517Z,18.93
2023-04-13T20:43:17.903Z,19.40
2023-04-13T20:45:46.698Z,19.23
2023-04-13T20:50:51.599Z,18.33
2023-04-13T20:53:24.570Z,17.13
2023-04-13T20:56:02.728Z,15.67
2023-04-13T20:58:32.571Z,16.30
2023-04-13T21:01:01.584Z,16.23
2023-04-13T21:03:31.100Z,15.70
2023-04-13T21:06:01.608Z,15.33
2023-04-13T21:08:30.327Z,16.63
2023-04-13T21:10:58.770Z,15.70
2023-04-13T21:13:28.166Z,14.67
2023-04-13T21:15:56.631Z,16.10
2023-04-13T21:18:25.311Z,15.53
2023-04-13T21:20:54.250Z,14.60
2023-04-13T21:23:24.317Z,15.63
2023-04-13T21:25:53.899Z,14.17
2023-04-13T21:28:22.524Z,15.00
2023-04-13T21:30:51.146Z,14.20
2023-04-13T21:33:19.619Z,15.23
2023-04-13T21:35:48.073Z,15.43
2023-04-13T21:38:16.866Z,16.17
2023-04-13T21:40:46.831Z,16.07
2023-04-13T21:43:15.701Z,16.00
2023-04-13T21:45:44.295Z,15.90
2023-04-13T21:48:12.793Z,17.33
2023-04-13T21:50:41.507Z,18.07
2023-04-13T21:53:10.288Z,17.13
2023-04-13T21:55:38.828Z,19.87
2023-04-13T21:58:08.741Z,19.43
2023-04-13T22:00:37.786Z,18.90
2023-04-13T22:03:06.476Z,14.38
2023-04-13T22:05:35.222Z,17.77
2023-04-13T22:08:04.381Z,18.30
2023-04-13T22:10:32.908Z,26.87
2023-04-13T22:13:01.516Z,27.83
2023-04-13T22:15:31.779Z,29.07
2023-04-13T22:18:00.479Z,28.57
2023-04-13T22:20:29.055Z,28.07
2023-04-13T22:22:57.672Z,29.60
2023-04-13T22:25:28.079Z,30.70
2023-04-13T22:27:56.634Z,26.10
2023-04-13T22:30:25.190Z,26.80
2023-04-13T22:32:55.107Z,28.67
2023-04-13T22:35:23.679Z,19.77
2023-04-13T22:37:52.541Z,22.50
2023-04-13T22:40:21.223Z,27.10
2023-04-13T22:42:49.802Z,24.83
2023-04-13T22:45:18.880Z,27.37
2023-04-13T22:47:47.640Z,29.60
2023-04-13T22:50:17.722Z,27.93
2023-04-13T22:52:46.350Z,26.83
2023-04-13T22:55:16.948Z,24.27
2023-04-13T22:58:04.824Z,26.20
2023-04-13T23:00:33.365Z,27.43
2023-04-13T23:03:02.476Z,28.07
2023-04-13T23:05:32.602Z,27.70
2023-04-13T23:08:01.222Z,26.93
2023-04-13T23:10:31.904Z,26.13
2023-04-13T23:13:00.943Z,28.43
2023-04-13T23:15:29.519Z,24.67
2023-04-13T23:17:58.443Z,25.40
2023-04-13T23:20:30.383Z,23.00
2023-04-13T23:23:00.758Z,22.77
2023-04-13T23:25:29.359Z,23.70
2023-04-13T23:27:57.898Z,25.13
2023-04-13T23:30:26.461Z,22.30
2023-04-13T23:32:55.418Z,23.73
2023-04-13T23:35:25.885Z,22.40
2023-04-13T23:37:54.499Z,23.70
2023-04-13T23:40:24.807Z,21.27
2023-04-13T23:42:53.302Z,24.73
2023-04-13T23:45:22.688Z,24.20
2023-04-13T23:47:51.410Z,24.87
2023-04-13T23:50:20.160Z,22.53
2023-04-13T23:52:48.700Z,23.67
2023-04-13T23:55:17.623Z,23.47
2023-04-13T23:57:47.884Z,21.43
